Time;durP1;ratioP1;P1;durP2;ratioP2;P2;SDS_P1;SDS_P2;PMS_P1;PMS_P2;Temp;Humidity;BMP_temperature;BMP_pressure;BME280_temperature;BME280_humidity;BME280_pressure;Samples;Min_cycle;Max_cycle;Signal;HPM_P1;HPM_P2
2021/08/14 00:02:12;;;;;;;1999.90;999.90;;;18.90;99.90;;;;;;5033958;28;20104;-85
2021/08/14 00:04:38;;;;;;;1999.90;999.90;;;18.90;99.90;;;;;;5033918;28;20548;-87
2021/08/14 00:07:04;;;;;;;1999.90;999.90;;;18.90;99.90;;;;;;5032986;28;20033;-86
2021/08/14 00:09:30;;;;;;;1999.90;999.90;;;19.00;99.90;;;;;;5032754;28;20096;-85
2021/08/14 00:11:56;;;;;;;1999.90;999.90;;;19.00;99.90;;;;;;5032977;28;20071;-85
2021/08/14 00:14:22;;;;;;;1999.90;999.90;;;19.00;99.90;;;;;;5032912;28;20450;-85
2021/08/14 00:16:47;;;;;;;1999.90;999.90;;;18.90;99.90;;;;;;5032711;28;20052;-86
2021/08/14 00:19:13;;;;;;;1999.90;999.90;;;18.90;99.90;;;;;;5032744;28;20108;-86
2021/08/14 00:21:39;;;;;;;1999.90;999.90;;;18.90;99.90;;;;;;5032717;28;20060;-85
2021/08/14 00:24:06;;;;;;;1999.90;999.90;;;19.00;99.90;;;;;;5032869;28;20037;-85
2021/08/14 00:26:32;;;;;;;1999.90;999.90;;;19.00;99.90;;;;;;5032743;28;20022;-85
2021/08/14 00:28:57;;;;;;;1999.90;999.90;;;19.00;99.90;;;;;;5032811;28;20028;-84
2021/08/14 00:31:23;;;;;;;1999.90;999.90;;;18.90;99.90;;;;;;5032757;28;20025;-84
2021/08/14 00:33:49;;;;;;;1999.90;999.90;;;18.90;99.90;;;;;;5032698;28;20029;-85
2021/08/14 00:36:15;;;;;;;1999.90;999.90;;;18.90;99.90;;;;;;5032817;28;20120;-85
2021/08/14 00:38:40;;;;;;;1999.90;999.90;;;18.90;99.90;;;;;;5032561;28;20022;-85
2021/08/14 00:41:06;;;;;;;1999.90;999.90;;;18.90;99.90;;;;;;5032408;28;20026;-86
2021/08/14 00:43:33;;;;;;;1999.90;999.90;;;18.90;99.90;;;;;;5032518;28;20091;-85
2021/08/14 00:46:02;;;;;;;1999.90;999.90;;;18.90;99.90;;;;;;5032766;28;20033;-85
2021/08/14 00:48:27;;;;;;;1999.90;999.90;;;18.80;99.90;;;;;;5032643;28;20424;-86
2021/08/14 00:50:53;;;;;;;1999.90;999.90;;;18.80;99.90;;;;;;5035857;28;20029;-85
2021/08/14 00:53:20;;;;;;;1999.90;999.90;;;18.80;99.90;;;;;;5036275;28;20025;-85
2021/08/14 00:55:47;;;;;;;1999.90;999.90;;;18.80;99.90;;;;;;5036247;28;20385;-86
2021/08/14 00:58:13;;;;;;;1999.90;999.90;;;18.80;99.90;;;;;;5036144;28;20093;-86
2021/08/14 01:00:40;;;;;;;1999.90;999.90;;;18.80;99.90;;;;;;5035951;28;20060;-86
2021/08/14 01:03:06;;;;;;;1999.90;999.90;;;18.80;99.90;;;;;;5035975;28;20053;-85
2021/08/14 01:05:33;;;;;;;1999.90;999.90;;;18.70;99.90;;;;;;5035988;28;20044;-86
2021/08/14 01:07:58;;;;;;;1999.90;999.90;;;18.80;99.90;;;;;;5036184;28;20124;-87
2021/08/14 01:10:24;;;;;;;1999.90;999.90;;;18.80;99.90;;;;;;5035954;28;20116;-85
2021/08/14 01:12:51;;;;;;;1999.90;999.90;;;18.80;99.90;;;;;;5036767;28;20397;-84
2021/08/14 01:15:17;;;;;;;1999.90;999.90;;;18.70;99.90;;;;;;5036035;28;20136;-86
2021/08/14 01:17:42;;;;;;;1999.90;999.90;;;18.70;99.90;;;;;;5035675;28;20496;-85
2021/08/14 01:20:09;;;;;;;1999.90;999.90;;;18.70;99.90;;;;;;5035811;28;20075;-85
2021/08/14 01:22:36;;;;;;;1999.90;999.90;;;18.70;99.90;;;;;;5035457;28;20057;-86
2021/08/14 01:25:07;;;;;;;1999.90;999.90;;;18.70;99.90;;;;;;5035457;28;20121;-85
2021/08/14 01:27:35;;;;;;;1999.90;999.90;;;18.70;99.90;;;;;;5035436;28;20021;-91
2021/08/14 01:30:01;;;;;;;1999.90;999.90;;;18.70;99.90;;;;;;5035378;28;20021;-85
2021/08/14 01:32:27;;;;;;;1999.90;999.90;;;18.60;99.90;;;;;;5035234;28;20464;-86
2021/08/14 01:34:52;;;;;;;1999.90;999.90;;;18.60;99.90;;;;;;5035566;28;20117;-85
2021/08/14 01:37:18;;;;;;;1999.90;999.90;;;18.60;99.90;;;;;;5035450;28;20026;-85
2021/08/14 01:39:44;;;;;;;1999.90;999.90;;;18.60;99.90;;;;;;5035570;28;20037;-85
2021/08/14 01:42:10;;;;;;;1999.90;999.90;;;18.60;99.90;;;;;;5035022;28;20021;-86
2021/08/14 01:44:37;;;;;;;1999.90;999.90;;;18.60;99.90;;;;;;5035197;28;20132;-86
2021/08/14 01:47:03;;;;;;;1999.90;999.90;;;18.60;99.90;;;;;;5035167;28;20026;-86
2021/08/14 01:49:29;;;;;;;1999.90;999.90;;;18.60;99.90;;;;;;5035236;28;20092;-87
2021/08/14 01:51:55;;;;;;;1999.90;999.90;;;18.60;99.90;;;;;;5035217;28;20365;-86
2021/08/14 01:54:21;;;;;;;1999.90;999.90;;;18.60;99.90;;;;;;5051911;28;20045;-87
2021/08/14 01:56:49;;;;;;;1999.90;999.90;;;18.50;99.90;;;;;;5035512;28;20160;-86
2021/08/14 01:59:14;;;;;;;1999.90;999.90;;;18.50;99.90;;;;;;5035434;28;20500;-86
2021/08/14 02:01:40;;;;;;;1999.90;999.90;;;18.40;99.90;;;;;;5034122;28;20026;-87
2021/08/14 02:04:06;;;;;;;1999.90;999.90;;;18.50;99.90;;;;;;5035039;28;20037;-86
2021/08/14 02:06:32;;;;;;;1999.90;999.90;;;18.50;99.90;;;;;;5034815;28;20116;-87
2021/08/14 02:08:58;;;;;;;1999.90;999.90;;;18.40;99.90;;;;;;5034784;28;20052;-86
2021/08/14 02:11:34;;;;;;;1999.90;999.90;;;18.40;99.90;;;;;;5035013;28;20021;-88
2021/08/14 02:14:00;;;;;;;1999.90;999.90;;;18.30;99.90;;;;;;5034885;28;20033;-87
2021/08/14 02:16:25;;;;;;;1999.90;999.90;;;18.30;99.90;;;;;;5034728;28;20022;-87
2021/08/14 02:18:51;;;;;;;1999.90;999.90;;;18.30;99.90;;;;;;5035968;28;20127;-86
2021/08/14 02:21:17;;;;;;;1999.90;999.90;;;18.30;99.90;;;;;;5034527;28;20045;-86
2021/08/14 02:23:43;;;;;;;1999.90;999.90;;;18.30;99.90;;;;;;5034573;28;20473;-86
2021/08/14 02:26:09;;;;;;;1999.90;999.90;;;18.30;99.90;;;;;;5034515;28;20029;-86
2021/08/14 02:28:35;;;;;;;1999.90;999.90;;;18.30;99.90;;;;;;5034459;28;20171;-86
2021/08/14 02:31:02;;;;;;;1999.90;999.90;;;18.30;99.90;;;;;;5034636;28;20052;-85
2021/08/14 02:33:29;;;;;;;1999.90;999.90;;;18.30;99.90;;;;;;5034237;28;20466;-86
2021/08/14 02:35:55;;;;;;;1999.90;999.90;;;18.30;99.90;;;;;;5034357;28;20022;-85
2021/08/14 02:38:21;;;;;;;1999.90;999.90;;;18.30;99.90;;;;;;5034344;28;20065;-86
2021/08/14 02:40:47;;;;;;;1999.90;999.90;;;18.30;99.90;;;;;;5034242;28;20026;-86
2021/08/14 02:43:14;;;;;;;1999.90;999.90;;;18.30;99.90;;;;;;5034070;28;20060;-86
2021/08/14 02:45:40;;;;;;;1999.90;999.90;;;18.30;99.90;;;;;;5034148;28;20546;-88
2021/08/14 02:48:06;;;;;;;1999.90;999.90;;;18.30;99.90;;;;;;5033973;28;20025;-86
2021/08/14 02:50:31;;;;;;;1999.90;999.90;;;18.30;99.90;;;;;;5034089;28;20480;-88
2021/08/14 02:52:57;;;;;;;1999.90;999.90;;;18.30;99.90;;;;;;5034910;28;20097;-86
2021/08/14 02:55:24;;;;;;;1999.90;999.90;;;18.20;99.90;;;;;;5033827;28;20025;-87
2021/08/14 02:57:49;;;;;;;1999.90;999.90;;;18.20;99.90;;;;;;5034350;28;20028;-88
2021/08/14 03:00:15;;;;;;;1999.90;999.90;;;18.20;99.90;;;;;;5033884;28;20029;-86
2021/08/14 03:02:41;;;;;;;1999.90;999.90;;;18.20;99.90;;;;;;5033799;28;20017;-86
2021/08/14 03:05:07;;;;;;;1999.90;999.90;;;18.10;99.90;;;;;;5034052;28;20073;-86
2021/08/14 03:07:32;;;;;;;1999.90;999.90;;;18.10;99.90;;;;;;5033610;28;20026;-86
2021/08/14 03:09:59;;;;;;;1999.90;999.90;;;18.10;99.90;;;;;;5033929;28;20438;-87
2021/08/14 03:12:25;;;;;;;1999.90;999.90;;;18.10;99.90;;;;;;5033738;28;20123;-86
2021/08/14 03:14:51;;;;;;;1999.90;999.90;;;18.10;99.90;;;;;;5033825;28;20111;-88
2021/08/14 03:17:17;;;;;;;1999.90;999.90;;;18.10;99.90;;;;;;5033859;28;20098;-88
2021/08/14 03:19:43;;;;;;;1999.90;999.90;;;18.10;99.90;;;;;;5034598;28;20029;-88
2021/08/14 03:22:09;;;;;;;1999.90;999.90;;;18.10;99.90;;;;;;5033281;28;20050;-87
2021/08/14 03:24:36;;;;;;;1999.90;999.90;;;18.10;99.90;;;;;;5033439;28;20034;-87
2021/08/14 03:27:02;;;;;;;1999.90;999.90;;;18.10;99.90;;;;;;5033455;28;20092;-87
2021/08/14 03:29:27;;;;;;;1999.90;999.90;;;18.10;99.90;;;;;;5033469;28;20026;-89
2021/08/14 03:31:54;;;;;;;1999.90;999.90;;;18.10;99.90;;;;;;5033125;28;20025;-90
2021/08/14 03:34:19;;;;;;;1999.90;999.90;;;18.10;99.90;;;;;;5033424;28;20030;-88
2021/08/14 03:36:45;;;;;;;1999.90;999.90;;;18.00;99.90;;;;;;5033278;28;20120;-86
2021/08/14 03:39:11;;;;;;;1999.90;999.90;;;18.00;99.90;;;;;;5033425;28;20491;-88
2021/08/14 03:41:36;;;;;;;1999.90;999.90;;;18.00;99.90;;;;;;5033291;28;20021;-86
2021/08/14 03:44:03;;;;;;;1999.90;999.90;;;18.00;99.90;;;;;;5033177;28;20029;-87
2021/08/14 03:46:29;;;;;;;1999.90;999.90;;;18.00;99.90;;;;;;5033290;28;20025;-87
2021/08/14 03:48:55;;;;;;;1999.90;999.90;;;18.00;99.90;;;;;;5033276;28;20025;-88
2021/08/14 03:51:21;;;;;;;1999.90;999.90;;;17.90;99.90;;;;;;5033026;28;20033;-88
2021/08/14 03:53:47;;;;;;;1999.90;999.90;;;17.90;99.90;;;;;;5032887;28;20029;-88
2021/08/14 03:56:13;;;;;;;1999.90;999.90;;;17.90;99.90;;;;;;5033028;28;20116;-86
2021/08/14 03:58:38;;;;;;;1999.90;999.90;;;17.90;99.90;;;;;;5032969;28;20472;-86
2021/08/14 04:01:04;;;;;;;1999.90;999.90;;;17.90;99.90;;;;;;5033101;28;20030;-86
2021/08/14 04:03:30;;;;;;;1999.90;999.90;;;17.90;99.90;;;;;;5032887;28;20040;-87
2021/08/14 04:05:57;;;;;;;1999.90;999.90;;;17.90;99.90;;;;;;5033030;28;20038;-86
2021/08/14 04:08:22;;;;;;;1999.90;999.90;;;17.90;99.90;;;;;;5032921;28;20018;-87
2021/08/14 04:10:49;;;;;;;1999.90;999.90;;;18.00;99.90;;;;;;5033027;28;20037;-88
2021/08/14 04:13:15;;;;;;;1999.90;999.90;;;17.90;99.90;;;;;;5032718;28;20025;-87
2021/08/14 04:15:41;;;;;;;1999.90;999.90;;;18.00;99.90;;;;;;5032800;28;20030;-87
2021/08/14 04:18:07;;;;;;;1999.90;999.90;;;18.00;99.90;;;;;;5032983;28;20137;-86
2021/08/14 04:20:33;;;;;;;1999.90;999.90;;;18.00;99.90;;;;;;5032960;28;20117;-86
2021/08/14 04:22:58;;;;;;;1999.90;999.90;;;18.00;99.90;;;;;;5032880;28;20040;-87
2021/08/14 04:25:24;;;;;;;1999.90;999.90;;;18.10;99.90;;;;;;5035379;28;20030;-86
2021/08/14 04:27:50;;;;;;;1999.90;999.90;;;18.10;99.90;;;;;;5036829;28;20029;-87
2021/08/14 04:30:16;;;;;;;1999.90;999.90;;;18.10;99.90;;;;;;5036637;28;20124;-86
2021/08/14 04:32:42;;;;;;;1999.90;999.90;;;18.10;99.90;;;;;;5036442;28;20049;-87
2021/08/14 04:35:10;;;;;;;1999.90;999.90;;;18.20;99.90;;;;;;5036611;28;20460;-86
2021/08/14 04:37:36;;;;;;;1999.90;999.90;;;18.30;99.90;;;;;;5036607;28;20037;-87
2021/08/14 04:40:05;;;;;;;1999.90;999.90;;;18.30;99.90;;;;;;5036586;28;20057;-86
2021/08/14 04:42:30;;;;;;;1999.90;999.90;;;18.30;99.90;;;;;;5036383;28;20029;-86
2021/08/14 04:44:56;;;;;;;1999.90;999.90;;;18.40;99.90;;;;;;5037568;28;20030;-86
2021/08/14 04:47:22;;;;;;;1999.90;999.90;;;18.40;99.90;;;;;;5036517;28;20025;-89
2021/08/14 04:49:47;;;;;;;1999.90;999.90;;;18.50;99.90;;;;;;5036509;28;20358;-91
2021/08/14 04:52:13;;;;;;;1999.90;999.90;;;19.00;99.90;;;;;;5038012;28;20165;-82
2021/08/14 04:54:38;;;;;;;1999.90;999.90;;;20.60;99.90;;;;;;5035858;28;20034;-82
2021/08/14 04:57:04;;;;;;;1999.90;999.90;;;21.20;99.90;;;;;;5040661;28;20045;-82
2021/08/14 04:59:30;;;;;;;1999.90;999.90;;;21.40;99.90;;;;;;5039211;28;20025;-83
2021/08/14 05:01:56;;;;;;;1999.90;999.90;;;21.70;99.90;;;;;;5036150;28;20025;-82
2021/08/14 05:04:23;;;;;;;1999.90;999.90;;;22.00;99.90;;;;;;5035822;28;20084;-83
2021/08/14 05:06:49;;;;;;;1999.90;999.90;;;21.70;99.90;;;;;;5036046;28;20033;-83
2021/08/14 05:09:16;;;;;;;1999.90;999.90;;;21.60;99.90;;;;;;5036059;28;20067;-84
2021/08/14 05:11:41;;;;;;;1999.90;999.90;;;21.30;99.90;;;;;;5035777;28;20029;-83
2021/08/14 05:14:07;;;;;;;1999.90;999.90;;;21.20;99.90;;;;;;5035884;28;20032;-83
2021/08/14 05:16:34;;;;;;;1999.90;999.90;;;21.30;99.90;;;;;;5035933;28;20057;-82
2021/08/14 05:19:00;;;;;;;1999.90;999.90;;;21.20;99.90;;;;;;5035987;28;20026;-82
2021/08/14 05:21:26;;;;;;;1999.90;999.90;;;21.20;99.90;;;;;;5035616;28;20489;-82
2021/08/14 05:23:51;;;;;;;1999.90;999.90;;;20.80;99.90;;;;;;5035682;28;20025;-82
2021/08/14 05:26:17;;;;;;;1999.90;999.90;;;21.10;99.90;;;;;;5035899;28;20057;-82
2021/08/14 05:28:43;;;;;;;1999.90;999.90;;;21.10;99.90;;;;;;5035528;28;20029;-82
2021/08/14 05:31:08;;;;;;;1999.90;999.90;;;21.30;99.90;;;;;;5035769;28;20036;-82
2021/08/14 05:33:34;;;;;;;1999.90;999.90;;;21.50;99.90;;;;;;5035588;28;20052;-81
2021/08/14 05:36:00;;;;;;;1999.90;999.90;;;21.30;99.90;;;;;;5033677;28;20376;-81
2021/08/14 05:38:25;;;;;;;1999.90;999.90;;;21.00;99.90;;;;;;5035188;28;20496;-82
2021/08/14 05:40:51;;;;;;;1999.90;999.90;;;21.20;99.90;;;;;;5035462;28;20469;-81
2021/08/14 05:43:17;;;;;;;1999.90;999.90;;;21.10;99.90;;;;;;5035198;28;20026;-82
2021/08/14 05:45:42;;;;;;;1999.90;999.90;;;21.00;99.90;;;;;;5035268;28;20473;-81
2021/08/14 05:48:10;;;;;;;1999.90;999.90;;;21.20;99.90;;;;;;5035319;28;20022;-86
2021/08/14 05:50:36;;;;;;;1999.90;999.90;;;21.30;99.90;;;;;;5035245;28;20029;-82
2021/08/14 05:53:01;;;;;;;1999.90;999.90;;;21.60;99.90;;;;;;5035005;28;20021;-81
2021/08/14 05:55:27;;;;;;;1999.90;999.90;;;21.70;99.90;;;;;;5035146;28;20037;-85
2021/08/14 05:57:54;;;;;;;1999.90;999.90;;;21.90;99.90;;;;;;5035034;28;20021;-80
2021/08/14 06:00:21;;;;;;;1999.90;999.90;;;22.20;99.90;;;;;;5034933;28;20052;-83
2021/08/14 06:02:47;;;;;;;1999.90;999.90;;;22.20;99.90;;;;;;5034803;28;20026;-85
2021/08/14 06:05:13;;;;;;;1999.90;999.90;;;22.10;99.90;;;;;;5051458;28;20045;-86
2021/08/14 06:07:38;;;;;;;1999.90;999.90;;;22.20;99.90;;;;;;5034831;28;20033;-82
2021/08/14 06:10:08;;;;;;;1999.90;999.90;;;22.10;99.90;;;;;;5034858;28;20047;-83
2021/08/14 06:12:34;;;;;;;1999.90;999.90;;;22.00;99.90;;;;;;5034691;28;20503;-83
2021/08/14 06:15:00;;;;;;;1999.90;999.90;;;22.20;99.90;;;;;;5034630;28;20021;-83
2021/08/14 06:17:26;;;;;;;1999.90;999.90;;;22.20;99.90;;;;;;5034831;28;20068;-83
2021/08/14 06:19:52;;;;;;;1999.90;999.90;;;22.00;99.90;;;;;;5034474;28;20473;-84
2021/08/14 06:22:17;;;;;;;1999.90;999.90;;;22.00;99.90;;;;;;5034275;28;20079;-83
2021/08/14 06:24:43;;;;;;;1999.90;999.90;;;22.20;99.90;;;;;;5034497;28;20034;-82
2021/08/14 06:27:09;;;;;;;1999.90;999.90;;;22.40;99.90;;;;;;5034895;28;20025;-80
2021/08/14 06:29:35;;;;;;;1999.90;999.90;;;22.50;99.90;;;;;;5034898;28;20199;-86
2021/08/14 06:32:00;;;;;;;1999.90;999.90;;;22.50;99.90;;;;;;5038171;28;20025;-88
2021/08/14 06:34:26;;;;;;;1999.90;999.90;;;22.60;99.90;;;;;;5035713;28;20074;-87
2021/08/14 06:36:52;;;;;;;1999.90;999.90;;;22.60;99.90;;;;;;5034935;28;20033;-81
2021/08/14 06:39:17;;;;;;;1999.90;999.90;;;22.70;99.90;;;;;;5035514;28;20366;-81
2021/08/14 06:41:43;;;;;;;1999.90;999.90;;;22.70;99.90;;;;;;5034038;28;20358;-80
2021/08/14 06:44:09;;;;;;;1999.90;999.90;;;22.70;99.90;;;;;;5034625;28;20500;-80
2021/08/14 06:46:35;;;;;;;1999.90;999.90;;;22.90;99.90;;;;;;5034243;28;20445;-80
2021/08/14 06:49:02;;;;;;;1999.90;999.90;;;23.00;99.90;;;;;;5033747;28;20031;-80
2021/08/14 06:51:29;;;;;;;1999.90;999.90;;;23.00;99.90;;;;;;5033874;28;20033;-80
2021/08/14 06:53:55;;;;;;;1999.90;999.90;;;23.00;99.90;;;;;;5034081;28;20423;-80
2021/08/14 06:56:20;;;;;;;1999.90;999.90;;;23.20;99.90;;;;;;5033890;28;20029;-80
2021/08/14 06:58:46;;;;;;;1999.90;999.90;;;23.30;99.90;;;;;;5036879;28;20021;-90
2021/08/14 07:01:12;;;;;;;1999.90;999.90;;;23.50;99.90;;;;;;5037076;28;20065;-89
2021/08/14 07:03:38;;;;;;;1999.90;999.90;;;23.70;99.90;;;;;;5038034;28;20492;-82
2021/08/14 07:06:03;;;;;;;1999.90;999.90;;;23.90;99.90;;;;;;5033551;28;20064;-79
2021/08/14 07:08:29;;;;;;;1999.90;999.90;;;24.10;99.90;;;;;;5033443;28;20025;-80
2021/08/14 07:10:54;;;;;;;1999.90;999.90;;;24.20;99.90;;;;;;5033707;28;20473;-79
2021/08/14 07:13:20;;;;;;;1999.90;999.90;;;24.30;99.90;;;;;;5033329;28;20022;-79
2021/08/14 07:15:46;;;;;;;1999.90;999.90;;;24.40;99.90;;;;;;5033390;28;20021;-79
2021/08/14 07:18:12;;;;;;;1999.90;999.90;;;24.50;99.90;;;;;;5033378;28;20152;-79
2021/08/14 07:20:37;;;;;;;1999.90;999.90;;;24.60;99.90;;;;;;5033128;28;20048;-79
2021/08/14 07:23:03;;;;;;;1999.90;999.90;;;24.60;99.90;;;;;;5033082;28;20029;-79
2021/08/14 07:25:30;;;;;;;1999.90;999.90;;;24.60;99.90;;;;;;5022002;28;20044;-79
2021/08/14 07:27:56;;;;;;;1999.90;999.90;;;24.80;99.90;;;;;;5053335;28;20377;-80
2021/08/14 07:30:22;;;;;;;1999.90;999.90;;;24.90;99.90;;;;;;5053395;28;20059;-77
2021/08/14 07:32:47;;;;;;;1999.90;999.90;;;24.90;99.90;;;;;;5053040;28;20021;-79
2021/08/14 07:35:13;;;;;;;1999.90;999.90;;;25.00;99.90;;;;;;5053076;28;20029;-80
2021/08/14 07:37:49;;;;;;;1999.90;999.90;;;25.10;99.90;;;;;;5053312;28;20058;-81
2021/08/14 07:40:19;;;;;;;1999.90;999.90;;;25.30;99.90;;;;;;5054612;28;20036;-87
2021/08/14 07:42:45;;;;;;;1999.90;999.90;;;25.50;99.90;;;;;;5056126;28;20017;-78
2021/08/14 07:45:15;;;;;;;1999.90;999.90;;;25.60;99.90;;;;;;5054608;28;20408;-86
2021/08/14 07:47:42;;;;;;;1999.90;999.90;;;25.80;99.90;;;;;;5057745;28;20137;-80
2021/08/14 07:50:09;;;;;;;1999.90;999.90;;;25.90;99.90;;;;;;5053441;28;20170;-85
2021/08/14 07:52:35;;;;;;;1999.90;999.90;;;26.00;99.90;;;;;;5055057;28;20025;-80
2021/08/14 07:55:00;;;;;;;1999.90;999.90;;;26.20;99.90;;;;;;5054041;28;20034;-78
2021/08/14 07:57:27;;;;;;;1999.90;999.90;;;26.40;99.90;;;;;;5054473;28;20461;-88
2021/08/14 07:59:55;;;;;;;1999.90;999.90;;;26.60;99.90;;;;;;5053256;28;20128;-85
2021/08/14 08:02:20;;;;;;;1999.90;999.90;;;26.60;99.90;;;;;;5054901;28;20116;-83
2021/08/14 08:04:46;;;;;;;1999.90;999.90;;;26.70;99.90;;;;;;5053686;28;20065;-87
2021/08/14 08:07:12;;;;;;;1999.90;999.90;;;26.60;99.90;;;;;;5054582;28;20049;-84
2021/08/14 08:09:37;;;;;;;1999.90;999.90;;;26.70;99.90;;;;;;5053336;28;20047;-87
2021/08/14 08:12:03;;;;;;;1999.90;999.90;;;26.60;99.90;;;;;;5054845;28;20090;-79
2021/08/14 08:14:29;;;;;;;1999.90;999.90;;;26.70;99.90;;;;;;5057088;28;20067;-80
2021/08/14 08:16:54;;;;;;;1999.90;999.90;;;26.80;99.90;;;;;;5053935;28;20481;-87
2021/08/14 08:19:20;;;;;;;1999.90;999.90;;;26.80;99.90;;;;;;5053255;28;20111;-84
2021/08/14 08:21:45;;;;;;;1999.90;999.90;;;27.00;99.90;;;;;;5053934;28;20198;-85
2021/08/14 08:24:11;;;;;;;1999.90;999.90;;;27.00;99.90;;;;;;5052685;28;20037;-89
2021/08/14 08:26:37;;;;;;;1999.90;999.90;;;27.10;99.90;;;;;;5052831;28;20028;-82
2021/08/14 08:29:02;;;;;;;1999.90;999.90;;;27.10;99.90;;;;;;5052601;28;20469;-83
2021/08/14 08:31:29;;;;;;;1999.90;999.90;;;27.30;99.90;;;;;;5052816;28;20469;-87
2021/08/14 08:33:55;;;;;;;1999.90;999.90;;;27.30;99.90;;;;;;5052716;28;20037;-82
2021/08/14 08:36:21;;;;;;;1999.90;999.90;;;27.30;99.90;;;;;;5052961;28;20021;-83
2021/08/14 08:38:47;;;;;;;1999.90;999.90;;;27.40;99.90;;;;;;5052491;28;20034;-82
2021/08/14 08:41:16;;;;;;;1999.90;999.90;;;27.50;99.90;;;;;;5052410;28;20025;-85
2021/08/14 08:43:41;;;;;;;1999.90;999.90;;;27.60;99.90;;;;;;5052459;28;20032;-83
2021/08/14 08:46:11;;;;;;;1999.90;999.90;;;27.60;99.90;;;;;;5052554;28;20024;-86
2021/08/14 08:48:42;;;;;;;1999.90;999.90;;;27.60;99.90;;;;;;5052605;28;20021;-88
2021/08/14 08:51:08;;;;;;;1999.90;999.90;;;27.60;99.90;;;;;;5052303;28;20460;-89
2021/08/14 08:53:34;;;;;;;1999.90;999.90;;;27.60;99.90;;;;;;5052319;28;20064;-88
2021/08/14 08:55:59;;;;;;;1999.90;999.90;;;27.60;99.90;;;;;;5052451;28;20021;-86
2021/08/14 08:58:25;;;;;;;1999.90;999.90;;;27.70;99.90;;;;;;5052324;28;20056;-84
2021/08/14 09:00:51;;;;;;;1999.90;999.90;;;27.60;99.90;;;;;;5052450;28;20049;-86
2021/08/14 09:03:16;;;;;;;1999.90;999.90;;;27.60;99.90;;;;;;5052455;28;20025;-84
2021/08/14 09:05:49;;;;;;;1999.90;999.90;;;27.60;99.90;;;;;;5052633;28;20033;-87
2021/08/14 09:08:15;;;;;;;1999.90;999.90;;;27.70;99.90;;;;;;5053117;28;20384;-86
2021/08/14 09:10:41;;;;;;;1999.90;999.90;;;27.80;98.80;;;;;;5054881;28;20036;-84
2021/08/14 09:13:11;;;;;;;1999.90;999.90;;;27.90;99.00;;;;;;5057008;28;20078;-86
2021/08/14 09:15:37;;;;;;;1999.90;999.90;;;28.10;99.90;;;;;;5055638;28;20025;-85
2021/08/14 09:18:06;;;;;;;1999.90;999.90;;;28.20;99.60;;;;;;5055708;28;20021;-84
2021/08/14 09:20:44;;;;;;;1999.90;999.90;;;28.40;99.80;;;;;;5055310;28;20123;-83
2021/08/14 09:23:10;;;;;;;1999.90;999.90;;;28.50;97.20;;;;;;5055510;28;20052;-86
2021/08/14 09:25:48;;;;;;;1999.90;999.90;;;28.70;98.50;;;;;;5056517;28;20040;-82
2021/08/14 09:28:16;;;;;;;1999.90;999.90;;;29.00;98.40;;;;;;5056014;28;20028;-84
2021/08/14 09:30:54;;;;;;;1999.90;999.90;;;29.20;96.90;;;;;;5055854;28;20496;-83
2021/08/14 09:33:28;;;;;;;1999.90;999.90;;;29.40;95.10;;;;;;5055899;28;20469;-84
2021/08/14 09:36:01;;;;;;;1999.90;999.90;;;29.50;96.30;;;;;;5055485;28;20028;-83
2021/08/14 09:38:48;;;;;;;1999.90;999.90;;;29.50;94.50;;;;;;5055902;28;20028;-84
2021/08/14 09:41:22;;;;;;;1999.90;999.90;;;29.40;95.00;;;;;;5055196;28;20067;-82
2021/08/14 09:43:51;;;;;;;1999.90;999.90;;;29.40;98.00;;;;;;5055078;28;20025;-81
2021/08/14 09:46:17;;;;;;;1999.90;999.90;;;29.40;95.30;;;;;;5055419;28;20029;-84
2021/08/14 09:48:54;;;;;;;1999.90;999.90;;;29.40;95.50;;;;;;5056370;28;20025;-87
2021/08/14 09:51:33;;;;;;;1999.90;999.90;;;29.30;95.00;;;;;;5062430;28;20037;-86
2021/08/14 09:54:01;;;;;;;1999.90;999.90;;;29.20;96.00;;;;;;5064665;28;20029;-86
2021/08/14 09:56:27;;;;;;;1999.90;999.90;;;29.00;97.30;;;;;;5068303;28;20092;-85
2021/08/14 09:58:54;;;;;;;1999.90;999.90;;;28.90;96.90;;;;;;5064543;28;20022;-87
2021/08/14 10:01:20;;;;;;;1999.90;999.90;;;28.80;97.90;;;;;;5061645;28;20025;-86
2021/08/14 10:03:48;;;;;;;1999.90;999.90;;;28.70;98.40;;;;;;5047672;23;20046;-87
2021/08/14 10:06:14;;;;;;;1999.90;999.90;;;28.60;99.40;;;;;;5026614;28;20069;-83
2021/08/14 10:08:40;;;;;;;1999.90;999.90;;;28.50;99.70;;;;;;5041268;28;20053;-87
2021/08/14 10:11:11;;;;;;;1999.90;999.90;;;28.50;99.90;;;;;;5034838;28;20029;-87
2021/08/14 10:13:41;;;;;;;1999.90;999.90;;;28.60;99.90;;;;;;5032191;28;20022;-86
2021/08/14 10:16:09;;;;;;;1999.90;999.90;;;28.70;99.90;;;;;;5015194;28;20052;-82
2021/08/14 10:18:37;;;;;;;1999.90;999.90;;;28.70;99.40;;;;;;5015162;28;20026;-88
2021/08/14 10:21:03;;;;;;;1999.90;999.90;;;28.80;98.60;;;;;;5031552;28;20028;-82
2021/08/14 10:23:30;;;;;;;1999.90;999.90;;;28.90;97.60;;;;;;5031770;28;20053;-86
2021/08/14 10:26:10;;;;;;;1999.90;999.90;;;28.90;98.00;;;;;;5032209;28;20551;-88
2021/08/14 10:28:49;;;;;;;1999.90;999.90;;;29.00;96.20;;;;;;5030620;28;20054;-78
2021/08/14 10:31:45;;;;;;;1999.90;999.90;;;29.10;94.70;;;;;;5030504;28;20125;-79
2021/08/14 10:34:11;;;;;;;1999.90;999.90;;;29.20;95.30;;;;;;5012748;28;20069;-79
2021/08/14 10:36:38;;;;;;;1999.90;999.90;;;29.10;94.30;;;;;;5030705;28;20022;-82
2021/08/14 10:39:30;;;;;;;1999.90;999.90;;;29.20;95.70;;;;;;5030495;28;20042;-77
2021/08/14 10:42:04;;;;;;;1999.90;999.90;;;29.20;94.80;;;;;;5015310;28;20032;-77
2021/08/14 10:44:47;;;;;;;1999.90;999.90;;;29.20;95.20;;;;;;5015205;28;20044;-86
2021/08/14 10:47:31;;;;;;;1999.90;999.90;;;29.20;95.40;;;;;;5030820;28;20025;-77
2021/08/14 10:49:57;;;;;;;1999.90;999.90;;;29.10;95.50;;;;;;5030686;28;20045;-87
2021/08/14 10:52:33;;;;;;;1999.90;999.90;;;29.10;96.00;;;;;;5030279;28;20026;-78
2021/08/14 10:55:00;;;;;;;1999.90;999.90;;;29.10;96.30;;;;;;5030685;28;20018;-87
2021/08/14 10:57:47;;;;;;;1999.90;999.90;;;29.00;95.70;;;;;;5030465;28;20120;-87
2021/08/14 11:00:24;;;;;;;1999.90;999.90;;;28.90;96.90;;;;;;5030334;28;20033;-79
2021/08/14 11:03:07;;;;;;;1999.90;999.90;;;28.90;98.40;;;;;;5029831;28;20474;-85
2021/08/14 11:05:34;;;;;;;1999.90;999.90;;;28.90;98.60;;;;;;5030246;28;20037;-78
2021/08/14 11:08:00;;;;;;;1999.90;999.90;;;28.90;99.00;;;;;;5014750;28;20026;-85
2021/08/14 11:10:31;;;;;;;1999.90;999.90;;;28.90;98.60;;;;;;5030018;28;20034;-77
2021/08/14 11:12:57;;;;;;;1999.90;999.90;;;28.90;98.70;;;;;;5030260;28;20088;-78
2021/08/14 11:15:25;;;;;;;1999.90;999.90;;;28.90;99.60;;;;;;5030188;28;20026;-83
2021/08/14 11:17:53;;;;;;;1999.90;999.90;;;28.90;99.60;;;;;;5030086;28;20029;-79
2021/08/14 11:20:19;;;;;;;1999.90;999.90;;;28.90;99.90;;;;;;5030047;28;20394;-85
2021/08/14 11:22:50;;;;;;;1999.90;999.90;;;28.90;99.90;;;;;;5029992;28;20022;-84
2021/08/14 11:25:24;;;;;;;1999.90;999.90;;;28.80;99.90;;;;;;5013457;28;20040;-84
2021/08/14 11:28:05;;;;;;;1999.90;999.90;;;29.00;98.90;;;;;;5014616;28;20105;-85
2021/08/14 11:30:42;;;;;;;1999.90;999.90;;;29.10;99.00;;;;;;5029735;28;20072;-78
2021/08/14 11:33:10;;;;;;;1999.90;999.90;;;29.20;97.00;;;;;;5029559;28;20029;-78
2021/08/14 11:35:37;;;;;;;1999.90;999.90;;;29.40;96.50;;;;;;5014160;28;20013;-78
2021/08/14 11:38:11;;;;;;;1999.90;999.90;;;29.50;93.80;;;;;;5029485;28;20121;-76
2021/08/14 11:40:42;;;;;;;1999.90;999.90;;;29.60;94.20;;;;;;5029209;28;20030;-85
2021/08/14 11:43:16;;;;;;;1999.90;999.90;;;29.60;93.60;;;;;;5029259;28;20032;-79
2021/08/14 11:45:44;;;;;;;1999.90;999.90;;;29.60;93.80;;;;;;5029399;28;20076;-79
2021/08/14 11:48:12;;;;;;;1999.90;999.90;;;29.70;94.60;;;;;;5029500;28;20045;-78
2021/08/14 11:50:41;;;;;;;1999.90;999.90;;;29.80;94.10;;;;;;5029420;28;20057;-83
2021/08/14 11:53:09;;;;;;;1999.90;999.90;;;29.80;93.60;;;;;;5029405;28;20037;-77
2021/08/14 11:55:35;;;;;;;1999.90;999.90;;;29.90;92.40;;;;;;5029243;28;20026;-77
2021/08/14 11:58:01;;;;;;;1999.90;999.90;;;29.90;90.10;;;;;;5013780;28;20033;-79
2021/08/14 12:00:29;;;;;;;1999.90;999.90;;;30.00;90.30;;;;;;5014008;28;20022;-78